Time;durP1;ratioP1;P1;durP2;ratioP2;P2;SDS_P1;SDS_P2;PMS_P1;PMS_P2;Temp;Humidity;BMP_temperature;BMP_pressure;BME280_temperature;BME280_humidity;BME280_pressure;Samples;Min_cycle;Max_cycle;Signal;HPM_P1;HPM_P2
2021/06/24 00:00:03;;;;;;;2.00;1.90;;;;;;;;;;5052756;28;20489;-70
2021/06/24 00:02:29;;;;;;;2.23;1.50;;;;;;;;;;5052496;28;20466;-70
2021/06/24 00:04:55;;;;;;;2.30;2.17;;;;;;;;;;5052331;28;20437;-70
2021/06/24 00:07:21;;;;;;;3.43;1.93;;;;;;;;;;5052471;28;20418;-70
2021/06/24 00:09:47;;;;;;;4.43;2.30;;;;;;;;;;5052577;28;20413;-70
2021/06/24 00:12:17;;;;;;;3.17;2.77;;;;;;;;;;5052609;28;20411;-69
2021/06/24 00:14:43;;;;;;;4.00;3.60;;;;;;;;;;5051913;28;20877;-70
2021/06/24 00:17:09;;;;;;;4.83;3.20;;;;;;;;;;5051499;28;20601;-71
2021/06/24 00:22:39;;;;;;;4.33;3.97;;;;;;;;;;5052339;28;20892;-69
2021/06/24 00:25:05;;;;;;;3.97;3.67;;;;;;;;;;5051207;28;20411;-70
2021/06/24 00:27:31;;;;;;;5.03;4.63;;;;;;;;;;5052228;28;20415;-71
2021/06/24 00:29:57;;;;;;;6.73;5.00;;;;;;;;;;5052335;28;20417;-69
2021/06/24 00:32:23;;;;;;;4.33;4.03;;;;;;;;;;5051658;28;20825;-69
2021/06/24 00:37:52;;;;;;;4.93;4.43;;;;;;;;;;5052204;28;20422;-69
2021/06/24 00:40:18;;;;;;;4.80;4.40;;;;;;;;;;5054633;28;20407;-69
2021/06/24 00:42:45;;;;;;;5.17;4.67;;;;;;;;;;5055246;28;20415;-70
2021/06/24 00:45:12;;;;;;;5.47;4.97;;;;;;;;;;5052288;28;20411;-70
2021/06/24 00:47:38;;;;;;;5.03;4.60;;;;;;;;;;5051927;28;20858;-70
2021/06/24 00:53:08;;;;;;;6.00;5.50;;;;;;;;;;5055864;28;20410;-70
2021/06/24 00:55:41;;;;;;;5.40;4.90;;;;;;;;;;5055918;28;20423;-70
2021/06/24 00:58:12;;;;;;;5.10;4.60;;;;;;;;;;5055479;28;20813;-71
2021/06/24 01:00:39;;;;;;;4.80;4.40;;;;;;;;;;5055833;28;20419;-71
2021/06/24 01:03:05;;;;;;;5.93;5.17;;;;;;;;;;5055563;28;20501;-69
2021/06/24 01:05:32;;;;;;;5.23;4.73;;;;;;;;;;5055740;28;20454;-70
2021/06/24 01:07:58;;;;;;;4.70;4.33;;;;;;;;;;5055683;28;20491;-70
2021/06/24 01:10:24;;;;;;;3.80;3.50;;;;;;;;;;5055766;28;20488;-68
2021/06/24 01:12:50;;;;;;;4.03;3.60;;;;;;;;;;5055468;28;20409;-70
2021/06/24 01:15:16;;;;;;;4.37;3.77;;;;;;;;;;5037921;28;20426;-70
2021/06/24 01:17:43;;;;;;;5.37;3.47;;;;;;;;;;5055584;28;20450;-71
2021/06/24 01:23:12;;;;;;;3.40;3.10;;;;;;;;;;5055546;28;20517;-70
2021/06/24 01:25:38;;;;;;;3.00;2.80;;;;;;;;;;5037281;28;20442;-71
2021/06/24 01:28:06;;;;;;;3.13;2.90;;;;;;;;;;5055392;28;20408;-71
2021/06/24 01:30:32;;;;;;;3.87;3.57;;;;;;;;;;5055439;28;20484;-70
2021/06/24 01:32:58;;;;;;;3.20;2.90;;;;;;;;;;5055114;28;20414;-70
2021/06/24 01:35:26;;;;;;;3.40;3.20;;;;;;;;;;5055309;28;20490;-71
2021/06/24 01:37:55;;;;;;;3.03;2.73;;;;;;;;;;5055245;28;20426;-70
2021/06/24 01:40:21;;;;;;;3.40;3.00;;;;;;;;;;5055271;28;20904;-70
2021/06/24 01:42:48;;;;;;;2.90;2.30;;;;;;;;;;5055768;28;20411;-69
2021/06/24 01:45:14;;;;;;;2.90;2.70;;;;;;;;;;5055424;28;20529;-71
2021/06/24 01:47:40;;;;;;;3.10;2.77;;;;;;;;;;5055049;28;20765;-69
2021/06/24 01:53:09;;;;;;;2.90;2.43;;;;;;;;;;5053615;28;20511;-71
2021/06/24 01:55:36;;;;;;;3.00;2.23;;;;;;;;;;5053717;28;20749;-69
2021/06/24 01:58:03;;;;;;;4.23;3.50;;;;;;;;;;5053676;28;20768;-70
2021/06/24 02:00:29;;;;;;;4.20;3.60;;;;;;;;;;5053473;28;20439;-70
2021/06/24 02:02:56;;;;;;;6.37;4.23;;;;;;;;;;5053683;28;20508;-71
2021/06/24 02:08:26;;;;;;;4.40;4.00;;;;;;;;;;5053482;28;20417;-71
2021/06/24 02:10:53;;;;;;;5.30;4.80;;;;;;;;;;5053544;28;20402;-71
2021/06/24 02:13:19;;;;;;;4.43;4.03;;;;;;;;;;5053712;28;20863;-70
2021/06/24 02:15:45;;;;;;;4.73;3.70;;;;;;;;;;5053437;28;20414;-69
2021/06/24 02:18:11;;;;;;;4.07;3.60;;;;;;;;;;5053240;28;20769;-70
2021/06/24 02:20:38;;;;;;;5.63;3.57;;;;;;;;;;5053424;28;20414;-70
2021/06/24 02:23:04;;;;;;;6.47;3.90;;;;;;;;;;5052994;28;20408;-70
2021/06/24 02:25:32;;;;;;;4.43;4.03;;;;;;;;;;5052979;28;20506;-71
2021/06/24 02:27:59;;;;;;;5.30;4.90;;;;;;;;;;5053567;28;20415;-71
2021/06/24 02:30:25;;;;;;;4.90;4.50;;;;;;;;;;5053279;28;20585;-71
2021/06/24 02:32:52;;;;;;;5.30;4.90;;;;;;;;;;5052881;28;20407;-71
2021/06/24 02:38:21;;;;;;;3.57;3.30;;;;;;;;;;5052802;28;20451;-70
2021/06/24 02:40:48;;;;;;;4.00;3.70;;;;;;;;;;5053363;28;20411;-70
2021/06/24 02:43:14;;;;;;;8.00;3.30;;;;;;;;;;5035489;28;20438;-69
2021/06/24 02:45:41;;;;;;;3.70;3.30;;;;;;;;;;5053262;28;20517;-69
2021/06/24 02:48:07;;;;;;;3.97;3.30;;;;;;;;;;5015748;28;1069246;-72
2021/06/24 02:53:37;;;;;;;3.50;3.00;;;;;;;;;;5050879;28;20979;-71
2021/06/24 02:56:03;;;;;;;6.60;4.20;;;;;;;;;;5054038;28;20435;-71
2021/06/24 02:58:30;;;;;;;3.37;3.10;;;;;;;;;;5053814;28;20415;-70
2021/06/24 03:00:56;;;;;;;6.20;3.77;;;;;;;;;;5053579;28;20433;-72
2021/06/24 03:03:22;;;;;;;4.17;3.80;;;;;;;;;;5053656;28;20414;-71
2021/06/24 03:05:48;;;;;;;4.30;3.70;;;;;;;;;;5053611;28;20419;-69
2021/06/24 03:08:14;;;;;;;3.57;3.27;;;;;;;;;;5035845;28;20427;-71
2021/06/24 03:10:40;;;;;;;3.50;3.20;;;;;;;;;;5053206;28;20419;-71
2021/06/24 03:13:06;;;;;;;3.47;3.17;;;;;;;;;;5053238;28;20419;-69
2021/06/24 03:15:32;;;;;;;3.43;3.10;;;;;;;;;;5053633;28;20889;-69
2021/06/24 03:17:59;;;;;;;6.40;3.80;;;;;;;;;;5053791;28;20801;-70
2021/06/24 03:23:28;;;;;;;4.20;3.90;;;;;;;;;;5053126;28;20496;-70
2021/06/24 03:25:55;;;;;;;4.90;4.17;;;;;;;;;;5053224;28;20439;-70
2021/06/24 03:28:21;;;;;;;4.50;4.10;;;;;;;;;;5053474;28;20472;-70
2021/06/24 03:30:47;;;;;;;4.20;3.90;;;;;;;;;;5053194;28;20461;-70
2021/06/24 03:33:13;;;;;;;4.97;4.47;;;;;;;;;;5053290;28;20433;-71
2021/06/24 03:38:45;;;;;;;3.77;3.47;;;;;;;;;;5052983;28;20426;-71
2021/06/24 03:41:13;;;;;;;4.23;3.93;;;;;;;;;;5053055;28;20411;-71
2021/06/24 03:43:39;;;;;;;3.90;3.50;;;;;;;;;;5052861;28;20502;-71
2021/06/24 03:46:05;;;;;;;6.73;3.63;;;;;;;;;;5053198;28;20469;-70
2021/06/24 03:48:31;;;;;;;3.80;3.40;;;;;;;;;;5052556;28;20872;-71
2021/06/24 03:50:57;;;;;;;4.40;4.00;;;;;;;;;;5034918;28;20477;-71
2021/06/24 03:53:23;;;;;;;3.90;3.60;;;;;;;;;;5052546;28;20469;-72
2021/06/24 03:55:49;;;;;;;4.60;4.17;;;;;;;;;;5052799;28;20411;-71
2021/06/24 03:58:16;;;;;;;4.23;3.93;;;;;;;;;;5035149;28;20415;-70
2021/06/24 04:00:44;;;;;;;3.90;3.60;;;;;;;;;;5052788;28;20512;-69
2021/06/24 04:03:10;;;;;;;4.30;4.00;;;;;;;;;;5052325;28;20498;-71
2021/06/24 04:08:40;;;;;;;4.20;3.80;;;;;;;;;;5052403;28;20852;-70
2021/06/24 04:11:06;;;;;;;5.03;4.63;;;;;;;;;;5052487;28;20817;-69
2021/06/24 04:13:32;;;;;;;4.40;4.07;;;;;;;;;;5052317;28;20821;-71
2021/06/24 04:15:58;;;;;;;4.87;4.47;;;;;;;;;;5052395;28;20423;-70
2021/06/24 04:18:24;;;;;;;4.70;4.30;;;;;;;;;;5052191;28;20415;-70
2021/06/24 04:23:54;;;;;;;4.27;3.90;;;;;;;;;;5050869;28;20477;-72
2021/06/24 04:26:20;;;;;;;3.97;3.67;;;;;;;;;;5052252;28;20427;-70
2021/06/24 04:28:46;;;;;;;4.30;4.00;;;;;;;;;;5051545;28;20731;-69
2021/06/24 04:31:12;;;;;;;5.93;4.57;;;;;;;;;;5052315;28;20468;-69
2021/06/24 04:33:38;;;;;;;4.70;4.30;;;;;;;;;;5051902;28;20458;-70
2021/06/24 04:36:04;;;;;;;4.90;4.10;;;;;;;;;;5052116;28;20522;-70
2021/06/24 04:38:30;;;;;;;5.73;4.10;;;;;;;;;;5052167;28;20430;-70
2021/06/24 04:40:56;;;;;;;3.37;3.07;;;;;;;;;;5052296;28;20907;-71
2021/06/24 04:43:22;;;;;;;3.97;3.57;;;;;;;;;;5052128;28;20423;-70
2021/06/24 04:45:48;;;;;;;4.33;3.93;;;;;;;;;;5034824;28;20816;-69
2021/06/24 04:48:14;;;;;;;4.50;3.10;;;;;;;;;;5034109;28;20486;-70
2021/06/24 04:53:43;;;;;;;3.50;3.20;;;;;;;;;;5051928;28;20509;-69
2021/06/24 04:56:09;;;;;;;3.90;3.60;;;;;;;;;;5052070;28;20415;-70
2021/06/24 04:58:35;;;;;;;4.10;3.20;;;;;;;;;;5051920;28;20446;-71
2021/06/24 05:01:01;;;;;;;5.40;2.60;;;;;;;;;;5052222;28;20422;-70
2021/06/24 05:03:27;;;;;;;3.77;3.13;;;;;;;;;;5052034;28;20424;-69
2021/06/24 05:08:57;;;;;;;3.00;2.70;;;;;;;;;;5051900;28;20414;-69
2021/06/24 05:11:23;;;;;;;3.30;2.40;;;;;;;;;;5051980;28;20422;-70
2021/06/24 05:13:49;;;;;;;4.23;2.80;;;;;;;;;;5051818;28;20454;-71
2021/06/24 05:16:15;;;;;;;3.80;2.63;;;;;;;;;;5033904;28;20431;-69
2021/06/24 05:18:44;;;;;;;2.70;2.50;;;;;;;;;;5051688;28;20407;-70
2021/06/24 05:24:14;;;;;;;3.60;2.00;;;;;;;;;;5051648;28;20437;-71
2021/06/24 05:26:40;;;;;;;2.87;2.20;;;;;;;;;;5034067;28;20422;-70
2021/06/24 05:29:06;;;;;;;3.13;2.30;;;;;;;;;;5051733;28;20407;-69
2021/06/24 05:31:32;;;;;;;3.50;2.07;;;;;;;;;;5051898;28;20522;-71
2021/06/24 05:33:58;;;;;;;3.20;2.13;;;;;;;;;;5051630;28;20461;-70
2021/06/24 05:36:24;;;;;;;2.90;1.93;;;;;;;;;;5055076;28;20447;-69
2021/06/24 05:38:50;;;;;;;4.13;2.00;;;;;;;;;;5055083;28;20415;-70
2021/06/24 05:41:16;;;;;;;5.33;2.63;;;;;;;;;;5055070;28;20689;-71
2021/06/24 05:43:42;;;;;;;2.87;1.90;;;;;;;;;;5055122;28;20517;-71
2021/06/24 05:46:08;;;;;;;2.50;1.97;;;;;;;;;;5054133;28;20888;-69
2021/06/24 05:48:34;;;;;;;2.10;1.90;;;;;;;;;;5053354;28;20515;-69
2021/06/24 05:54:04;;;;;;;5.17;1.90;;;;;;;;;;5054166;28;20517;-70
2021/06/24 05:56:30;;;;;;;2.87;2.10;;;;;;;;;;5054914;28;20411;-69
2021/06/24 05:58:56;;;;;;;2.03;1.93;;;;;;;;;;5055010;28;20423;-69
2021/06/24 06:01:23;;;;;;;3.17;1.67;;;;;;;;;;5055034;28;20423;-68
2021/06/24 06:03:49;;;;;;;1.50;1.30;;;;;;;;;;5054700;28;20981;-69
2021/06/24 06:09:18;;;;;;;2.30;2.10;;;;;;;;;;5054433;28;20413;-71
2021/06/24 06:11:44;;;;;;;2.60;2.07;;;;;;;;;;5054665;28;20498;-70
2021/06/24 06:14:11;;;;;;;2.27;2.07;;;;;;;;;;5053379;28;20493;-69
2021/06/24 06:16:37;;;;;;;2.70;2.50;;;;;;;;;;5054409;28;20400;-69
2021/06/24 06:19:03;;;;;;;2.20;1.97;;;;;;;;;;5054062;28;20447;-69
2021/06/24 06:24:33;;;;;;;2.20;1.97;;;;;;;;;;5053989;28;20498;-68
2021/06/24 06:26:59;;;;;;;2.50;2.30;;;;;;;;;;5054046;28;20920;-69
2021/06/24 06:29:25;;;;;;;2.50;2.30;;;;;;;;;;5054212;28;20443;-70
2021/06/24 06:31:51;;;;;;;2.30;2.10;;;;;;;;;;5053978;28;20418;-69
2021/06/24 06:34:17;;;;;;;2.90;2.60;;;;;;;;;;5053613;28;20467;-69
2021/06/24 06:36:43;;;;;;;4.30;3.00;;;;;;;;;;5053873;28;20928;-70
2021/06/24 06:39:09;;;;;;;2.47;2.27;;;;;;;;;;5053825;28;20449;-70
2021/06/24 06:41:35;;;;;;;3.20;2.30;;;;;;;;;;5054318;28;20446;-71
2021/06/24 06:44:01;;;;;;;3.43;2.90;;;;;;;;;;5054125;28;20438;-68
2021/06/24 06:46:27;;;;;;;3.00;2.50;;;;;;;;;;5052988;28;20415;-68
2021/06/24 06:48:53;;;;;;;3.60;2.57;;;;;;;;;;5053718;28;20487;-71
2021/06/24 06:54:22;;;;;;;3.20;3.00;;;;;;;;;;5053560;28;20520;-69
2021/06/24 06:56:48;;;;;;;3.53;2.80;;;;;;;;;;5035760;28;20435;-71
2021/06/24 06:59:14;;;;;;;2.80;2.57;;;;;;;;;;5035741;28;20446;-70
2021/06/24 07:01:41;;;;;;;2.53;2.30;;;;;;;;;;5035608;28;20435;-74
2021/06/24 07:04:07;;;;;;;2.97;2.77;;;;;;;;;;5053537;28;20846;-73
2021/06/24 07:09:36;;;;;;;3.13;2.83;;;;;;;;;;5052211;28;20406;-69
2021/06/24 07:12:02;;;;;;;3.07;2.77;;;;;;;;;;5052493;28;20442;-68
2021/06/24 07:14:28;;;;;;;3.00;2.80;;;;;;;;;;5052019;28;20557;-68
2021/06/24 07:16:54;;;;;;;4.50;3.33;;;;;;;;;;5051455;28;20505;-70
2021/06/24 07:19:20;;;;;;;3.80;2.80;;;;;;;;;;5051828;28;20499;-69
2021/06/24 07:24:50;;;;;;;2.87;2.50;;;;;;;;;;5050927;28;20449;-69
2021/06/24 07:27:16;;;;;;;2.80;2.60;;;;;;;;;;5034476;28;20427;-70
2021/06/24 07:29:42;;;;;;;2.57;2.37;;;;;;;;;;5052923;28;20413;-70
2021/06/24 07:32:08;;;;;;;2.50;2.07;;;;;;;;;;5053163;28;20431;-68
2021/06/24 07:34:35;;;;;;;2.20;2.00;;;;;;;;;;5052788;28;20562;-69
2021/06/24 07:37:01;;;;;;;5.00;2.77;;;;;;;;;;5052925;28;20468;-68
2021/06/24 07:39:27;;;;;;;2.43;2.23;;;;;;;;;;5053045;28;20926;-68
2021/06/24 07:41:53;;;;;;;3.57;3.07;;;;;;;;;;5052892;28;20416;-70
2021/06/24 07:44:19;;;;;;;3.10;2.20;;;;;;;;;;5052886;28;20878;-69
2021/06/24 07:46:45;;;;;;;4.33;2.60;;;;;;;;;;5052749;28;20411;-70
2021/06/24 07:49:11;;;;;;;2.63;2.43;;;;;;;;;;5052472;28;20481;-70
2021/06/24 07:54:40;;;;;;;2.70;2.50;;;;;;;;;;5049417;28;20536;-69
2021/06/24 07:57:07;;;;;;;3.13;2.93;;;;;;;;;;5052089;28;20819;-69
2021/06/24 07:59:34;;;;;;;3.27;3.07;;;;;;;;;;5034260;28;20508;-70
2021/06/24 08:02:00;;;;;;;2.70;2.47;;;;;;;;;;5052483;28;20415;-69
2021/06/24 08:04:26;;;;;;;3.37;3.07;;;;;;;;;;5033785;28;20504;-68
2021/06/24 08:10:01;;;;;;;3.07;2.47;;;;;;;;;;5051835;28;20406;-67
2021/06/24 08:12:27;;;;;;;2.87;2.67;;;;;;;;;;5033898;28;20485;-67
2021/06/24 08:14:53;;;;;;;3.30;2.27;;;;;;;;;;5051699;28;20469;-68
2021/06/24 08:17:19;;;;;;;3.50;3.20;;;;;;;;;;5051894;28;20491;-68
2021/06/24 08:19:45;;;;;;;2.80;2.60;;;;;;;;;;5051759;28;20403;-69
2021/06/24 08:25:15;;;;;;;2.60;2.40;;;;;;;;;;5051711;28;20815;-69
2021/06/24 08:27:41;;;;;;;3.40;2.40;;;;;;;;;;5052065;28;20406;-69
2021/06/24 08:30:08;;;;;;;3.60;2.20;;;;;;;;;;5051623;28;20947;-69
2021/06/24 08:32:34;;;;;;;3.00;2.70;;;;;;;;;;5051793;28;20586;-69
2021/06/24 08:35:00;;;;;;;2.70;2.50;;;;;;;;;;5044065;28;20481;-68
2021/06/24 08:37:26;;;;;;;3.43;2.20;;;;;;;;;;5050372;28;20415;-68
2021/06/24 08:39:52;;;;;;;2.40;2.17;;;;;;;;;;5049717;28;20443;-68
2021/06/24 08:42:18;;;;;;;2.60;2.40;;;;;;;;;;5049988;28;20403;-70
2021/06/24 08:44:45;;;;;;;3.10;2.80;;;;;;;;;;5050223;28;20415;-69
2021/06/24 08:47:14;;;;;;;3.40;2.83;;;;;;;;;;5050342;28;20810;-68
2021/06/24 08:49:40;;;;;;;3.10;2.80;;;;;;;;;;5049730;28;20949;-67
2021/06/24 08:55:10;;;;;;;3.30;3.03;;;;;;;;;;5049799;28;20474;-67
2021/06/24 08:57:36;;;;;;;3.90;3.30;;;;;;;;;;5031985;28;20430;-68
2021/06/24 09:00:05;;;;;;;2.93;2.60;;;;;;;;;;5050129;28;20431;-68
2021/06/24 09:02:41;;;;;;;3.33;2.50;;;;;;;;;;5050186;28;20426;-67
2021/06/24 09:05:07;;;;;;;3.30;3.10;;;;;;;;;;5049809;28;20475;-67
2021/06/24 09:10:37;;;;;;;3.80;2.43;;;;;;;;;;5051325;28;20863;-68
2021/06/24 09:13:05;;;;;;;3.53;3.33;;;;;;;;;;5053188;28;20447;-67
2021/06/24 09:15:38;;;;;;;7.83;3.20;;;;;;;;;;5052875;28;20482;-68
2021/06/24 09:18:05;;;;;;;7.70;3.23;;;;;;;;;;5053032;28;20429;-67
2021/06/24 09:20:32;;;;;;;5.63;2.93;;;;;;;;;;5053082;28;20460;-66
2021/06/24 09:23:18;;;;;;;4.77;3.80;;;;;;;;;;5053037;28;20418;-69
2021/06/24 09:25:45;;;;;;;3.30;3.00;;;;;;;;;;5053081;28;20947;-68
2021/06/24 09:28:11;;;;;;;4.87;3.03;;;;;;;;;;5053159;28;20738;-68
2021/06/24 09:30:39;;;;;;;4.10;3.60;;;;;;;;;;5052105;28;20722;-68
2021/06/24 09:33:08;;;;;;;4.13;3.73;;;;;;;;;;5053089;28;20403;-66
2021/06/24 09:35:35;;;;;;;3.90;3.20;;;;;;;;;;5054136;28;20442;-66
2021/06/24 09:41:04;;;;;;;5.30;3.50;;;;;;;;;;5053550;28;20502;-66
2021/06/24 09:43:37;;;;;;;4.37;3.93;;;;;;;;;;5053309;28;20517;-67
2021/06/24 09:48:40;;;;;;;2.87;2.67;;;;;;;;;;5053244;28;20504;-69
2021/06/24 09:51:23;;;;;;;2.80;2.60;;;;;;;;;;5035351;28;20526;-67
2021/06/24 09:53:55;;;;;;;6.33;2.93;;;;;;;;;;5053201;28;20473;-67
2021/06/24 09:56:27;;;;;;;3.53;3.23;;;;;;;;;;5053518;28;20489;-67
2021/06/24 09:58:54;;;;;;;3.00;2.80;;;;;;;;;;5053496;28;20763;-67
2021/06/24 10:01:34;;;;;;;2.77;2.57;;;;;;;;;;5053473;28;20531;-66
2021/06/24 10:04:01;;;;;;;3.03;2.60;;;;;;;;;;5053053;28;20494;-67
2021/06/24 10:06:29;;;;;;;6.80;2.90;;;;;;;;;;5053047;28;20431;-68
2021/06/24 10:08:56;;;;;;;2.70;2.50;;;;;;;;;;5050959;28;20411;-66
2021/06/24 10:11:22;;;;;;;3.03;2.80;;;;;;;;;;5051688;28;20422;-65
2021/06/24 10:13:49;;;;;;;2.97;2.67;;;;;;;;;;5051197;28;20446;-67
2021/06/24 10:16:18;;;;;;;1.80;1.70;;;;;;;;;;5052464;28;20839;-68
2021/06/24 10:18:46;;;;;;;1.67;1.57;;;;;;;;;;5052190;28;20410;-67
2021/06/24 10:21:14;;;;;;;2.43;2.23;;;;;;;;;;5050826;28;20423;-68
2021/06/24 10:23:41;;;;;;;2.83;2.53;;;;;;;;;;5050802;28;20411;-67
2021/06/24 10:26:09;;;;;;;4.80;2.20;;;;;;;;;;5049123;28;20488;-67
2021/06/24 10:28:35;;;;;;;1.80;1.70;;;;;;;;;;5051097;28;20477;-67
2021/06/24 10:31:01;;;;;;;2.63;2.00;;;;;;;;;;5051404;28;20762;-67
2021/06/24 10:33:27;;;;;;;1.80;1.70;;;;;;;;;;5051427;28;20411;-69
2021/06/24 10:35:53;;;;;;;3.50;3.20;;;;;;;;;;5051541;28;20430;-68
2021/06/24 10:41:22;;;;;;;2.10;1.90;;;;;;;;;;5051633;28;20410;-67
2021/06/24 10:43:49;;;;;;;2.30;2.10;;;;;;;;;;5051743;28;20419;-68
2021/06/24 10:46:17;;;;;;;1.60;1.50;;;;;;;;;;5050614;28;20403;-67
2021/06/24 10:48:43;;;;;;;2.13;2.03;;;;;;;;;;5050928;28;20486;-68
2021/06/24 10:56:58;;;;;;;1.50;1.27;;;;;;;;;;5051265;28;20486;-67
2021/06/24 10:59:29;;;;;;;1.60;1.50;;;;;;;;;;5049844;28;20825;-67
2021/06/24 11:02:04;;;;;;;1.83;1.43;;;;;;;;;;5052023;28;20476;-66
2021/06/24 11:04:36;;;;;;;1.40;1.30;;;;;;;;;;5051423;28;20511;-67
2021/06/24 11:07:14;;;;;;;1.43;1.33;;;;;;;;;;5033308;28;20989;-67
2021/06/24 11:09:40;;;;;;;1.60;1.50;;;;;;;;;;5050555;28;20426;-67
2021/06/24 11:12:06;;;;;;;1.40;1.30;;;;;;;;;;5050585;28;20415;-67
2021/06/24 11:14:54;;;;;;;2.07;1.30;;;;;;;;;;5050427;28;20524;-67
2021/06/24 11:17:41;;;;;;;1.70;1.60;;;;;;;;;;5050706;28;20415;-67
2021/06/24 11:20:13;;;;;;;1.70;1.60;;;;;;;;;;5050394;28;21038;-68
2021/06/24 11:22:46;;;;;;;1.83;1.73;;;;;;;;;;5050301;28;20909;-67
2021/06/24 11:25:12;;;;;;;1.70;1.60;;;;;;;;;;5050329;28;20450;-68
2021/06/24 11:27:38;;;;;;;3.13;1.80;;;;;;;;;;5050243;28;20418;-68
2021/06/24 11:30:04;;;;;;;3.17;1.33;;;;;;;;;;5050111;28;20488;-68
2021/06/24 11:32:36;;;;;;;2.07;1.97;;;;;;;;;;5048831;28;20497;-67
2021/06/24 11:35:14;;;;;;;1.43;1.33;;;;;;;;;;5048252;28;20477;-67
2021/06/24 11:37:40;;;;;;;2.90;1.53;;;;;;;;;;5050244;28;20414;-68
2021/06/24 11:40:07;;;;;;;1.60;1.50;;;;;;;;;;5050801;28;20972;-70
2021/06/24 11:42:40;;;;;;;1.60;1.50;;;;;;;;;;5050627;28;20908;-68
2021/06/24 11:45:07;;;;;;;1.60;1.50;;;;;;;;;;5050662;28;20423;-70
2021/06/24 11:47:34;;;;;;;1.70;1.60;;;;;;;;;;5050469;28;20832;-69
2021/06/24 12:03:39;;;;;;;2.53;1.73;;;;;;;;;;5050494;28;20416;-67
2021/06/24 12:06:05;;;;;;;2.37;1.37;;;;;;;;;;5050763;28;20468;-69
2021/06/24 12:08:31;;;;;;;3.97;1.70;;;;;;;;;;5049559;28;20411;-69
2021/06/24 12:11:04;;;;;;;1.40;1.10;;;;;;;;;;5050038;28;20514;-68
2021/06/24 12:13:34;;;;;;;4.40;1.27;;;;;;;;;;5049778;28;20403;-67
2021/06/24 12:16:01;;;;;;;2.33;1.37;;;;;;;;;;5049939;28;20427;-68
2021/06/24 12:18:33;;;;;;;1.20;1.10;;;;;;;;;;5049906;28;20418;-67
2021/06/24 12:21:10;;;;;;;1.27;1.20;;;;;;;;;;5032351;28;20448;-67
2021/06/24 12:23:42;;;;;;;2.43;1.20;;;;;;;;;;5049392;28;20453;-69
2021/06/24 12:26:08;;;;;;;1.30;1.20;;;;;;;;;;5050244;28;20417;-68
2021/06/24 12:28:34;;;;;;;0.90;0.90;;;;;;;;;;5031894;28;20431;-68
2021/06/24 12:31:00;;;;;;;1.00;0.93;;;;;;;;;;5049887;28;20838;-68
2021/06/24 12:33:28;;;;;;;0.97;0.97;;;;;;;;;;5049720;28;20427;-70
2021/06/24 12:35:55;;;;;;;1.03;0.83;;;;;;;;;;5032199;28;20442;-68
2021/06/24 12:38:23;;;;;;;2.20;0.97;;;;;;;;;;5049703;28;20425;-69
2021/06/24 12:40:52;;;;;;;1.10;0.80;;;;;;;;;;5049708;28;20423;-69
2021/06/24 12:43:22;;;;;;;0.90;0.90;;;;;;;;;;5048840;28;20533;-70
2021/06/24 12:45:50;;;;;;;1.03;0.90;;;;;;;;;;5052997;28;20480;-71
2021/06/24 12:48:32;;;;;;;0.53;0.53;;;;;;;;;;5053420;28;20907;-68
2021/06/24 12:50:59;;;;;;;0.93;0.90;;;;;;;;;;5054035;28;20454;-67
2021/06/24 12:53:33;;;;;;;0.90;0.60;;;;;;;;;;5053573;28;20486;-68
2021/06/24 12:55:59;;;;;;;0.83;0.60;;;;;;;;;;5053879;28;20422;-69
2021/06/24 12:58:25;;;;;;;0.70;0.70;;;;;;;;;;5053946;28;20411;-68
2021/06/24 13:00:53;;;;;;;1.00;0.73;;;;;;;;;;5051291;28;20781;-68
2021/06/24 13:03:37;;;;;;;0.83;0.83;;;;;;;;;;5053792;28;20510;-67
2021/06/24 13:06:11;;;;;;;1.23;0.70;;;;;;;;;;5053934;28;20513;-68
2021/06/24 13:08:37;;;;;;;0.80;0.80;;;;;;;;;;5034239;28;20426;-69
2021/06/24 13:11:13;;;;;;;0.67;0.60;;;;;;;;;;5052898;28;20438;-67
2021/06/24 13:13:39;;;;;;;3.73;0.50;;;;;;;;;;5053106;28;20974;-67
2021/06/24 13:16:22;;;;;;;1.57;1.10;;;;;;;;;;5052860;28;20488;-68
2021/06/24 13:18:49;;;;;;;1.00;0.97;;;;;;;;;;5053188;28;20403;-67
2021/06/24 13:21:15;;;;;;;0.63;0.60;;;;;;;;;;5052544;28;20422;-67
2021/06/24 13:23:41;;;;;;;1.30;0.70;;;;;;;;;;5052896;28;20746;-68
2021/06/24 13:26:10;;;;;;;1.13;0.60;;;;;;;;;;5053050;28;20411;-69
2021/06/24 13:28:37;;;;;;;4.20;0.70;;;;;;;;;;5052897;28;20473;-70
2021/06/24 13:31:03;;;;;;;0.87;0.60;;;;;;;;;;5053800;28;20414;-70
2021/06/24 13:33:38;;;;;;;0.70;0.70;;;;;;;;;;5054447;28;20503;-69
2021/06/24 13:36:19;;;;;;;1.07;0.90;;;;;;;;;;5036653;28;20589;-69
2021/06/24 13:38:56;;;;;;;1.17;0.73;;;;;;;;;;5054492;28;20447;-72
2021/06/24 13:41:26;;;;;;;6.20;1.70;;;;;;;;;;5054739;28;20414;-71
2021/06/24 13:44:11;;;;;;;5.50;1.50;;;;;;;;;;5054683;28;20415;-73
2021/06/24 13:46:38;;;;;;;3.10;1.10;;;;;;;;;;5054697;28;20484;-73
2021/06/24 13:49:05;;;;;;;6.90;1.43;;;;;;;;;;5054033;28;20552;-74
2021/06/24 13:51:31;;;;;;;2.10;1.17;;;;;;;;;;5054686;28;20822;-73
2021/06/24 13:54:00;;;;;;;1.47;1.37;;;;;;;;;;5053723;28;20473;-74
2021/06/24 13:56:27;;;;;;;2.37;1.30;;;;;;;;;;5052644;28;20445;-74
2021/06/24 13:58:54;;;;;;;1.10;1.00;;;;;;;;;;5053235;28;20422;-74
2021/06/24 14:01:20;;;;;;;3.20;0.80;;;;;;;;;;5053085;28;20431;-75
2021/06/24 14:03:46;;;;;;;2.00;1.23;;;;;;;;;;5052855;28;20910;-75
2021/06/24 14:06:17;;;;;;;1.63;1.23;;;;;;;;;;5054271;28;20423;-76
2021/06/24 14:08:43;;;;;;;3.87;3.27;;;;;;;;;;5054034;28;20415;-75
2021/06/24 14:11:11;;;;;;;1.20;1.10;;;;;;;;;;5054284;28;20424;-75
2021/06/24 14:13:39;;;;;;;2.03;1.07;;;;;;;;;;5054007;28;20924;-73
2021/06/24 14:16:05;;;;;;;1.20;0.70;;;;;;;;;;5054089;28;20430;-75
2021/06/24 14:18:31;;;;;;;1.90;1.00;;;;;;;;;;5053968;28;20465;-75
2021/06/24 14:20:57;;;;;;;1.40;0.73;;;;;;;;;;5053083;28;20423;-77
2021/06/24 14:23:23;;;;;;;2.60;1.00;;;;;;;;;;5053515;28;20422;-75
2021/06/24 14:25:50;;;;;;;1.97;0.97;;;;;;;;;;5052362;28;20919;-76
2021/06/24 14:28:16;;;;;;;0.80;0.70;;;;;;;;;;5053744;28;20411;-77
2021/06/24 14:30:42;;;;;;;2.97;1.00;;;;;;;;;;5050738;28;20419;-75
2021/06/24 14:33:09;;;;;;;3.43;1.10;;;;;;;;;;5051823;28;20399;-73
2021/06/24 14:35:35;;;;;;;1.10;0.90;;;;;;;;;;5052151;28;20470;-75
2021/06/24 14:41:05;;;;;;;0.80;0.80;;;;;;;;;;5052846;28;20434;-74
2021/06/24 14:43:31;;;;;;;1.43;0.97;;;;;;;;;;5035036;28;20439;-75
2021/06/24 14:45:57;;;;;;;0.83;0.73;;;;;;;;;;5052957;28;20412;-74
2021/06/24 14:48:26;;;;;;;1.10;1.00;;;;;;;;;;5052944;28;20471;-74
2021/06/24 14:50:53;;;;;;;1.90;1.17;;;;;;;;;;5053155;28;20858;-75
2021/06/24 14:56:23;;;;;;;1.40;1.30;;;;;;;;;;5053057;28;20453;-75
2021/06/24 14:58:50;;;;;;;1.80;1.30;;;;;;;;;;5034366;28;20481;-73
2021/06/24 15:01:16;;;;;;;3.77;1.60;;;;;;;;;;5053009;28;20883;-75
2021/06/24 15:03:43;;;;;;;3.00;1.50;;;;;;;;;;5052546;28;20415;-76
2021/06/24 15:06:09;;;;;;;1.57;0.87;;;;;;;;;;5034695;28;20703;-78
2021/06/24 15:11:39;;;;;;;1.63;1.20;;;;;;;;;;5052726;28;20515;-75
2021/06/24 15:14:05;;;;;;;3.00;1.23;;;;;;;;;;5052571;28;20475;-73
2021/06/24 15:16:31;;;;;;;1.30;1.03;;;;;;;;;;5035067;28;20427;-74
2021/06/24 15:18:57;;;;;;;3.33;1.40;;;;;;;;;;5052225;28;20404;-75
2021/06/24 15:21:23;;;;;;;1.80;1.30;;;;;;;;;;5052452;28;20491;-76
2021/06/24 15:26:53;;;;;;;1.97;1.40;;;;;;;;;;5052123;28;20966;-77
2021/06/24 15:29:19;;;;;;;1.53;1.43;;;;;;;;;;5052564;28;20423;-75
2021/06/24 15:31:45;;;;;;;1.20;1.10;;;;;;;;;;5052006;28;20419;-75
2021/06/24 15:34:11;;;;;;;1.40;1.30;;;;;;;;;;5051862;28;20558;-76
2021/06/24 15:36:37;;;;;;;2.20;1.40;;;;;;;;;;5052355;28;20439;-76
2021/06/24 15:42:08;;;;;;;1.30;1.00;;;;;;;;;;5052094;28;20429;-76
2021/06/24 15:44:34;;;;;;;1.43;1.03;;;;;;;;;;5052447;28;20407;-77
2021/06/24 15:47:00;;;;;;;2.10;1.17;;;;;;;;;;5052208;28;20947;-77
2021/06/24 15:49:26;;;;;;;1.77;1.40;;;;;;;;;;5051838;28;20466;-78
2021/06/24 15:51:52;;;;;;;1.67;1.57;;;;;;;;;;5052175;28;20443;-74
2021/06/24 15:57:22;;;;;;;1.53;1.43;;;;;;;;;;5051091;28;20516;-77
2021/06/24 15:59:48;;;;;;;2.63;2.43;;;;;;;;;;5051222;28;20505;-75
2021/06/24 16:02:14;;;;;;;3.00;1.90;;;;;;;;;;5050739;28;20427;-78
2021/06/24 16:04:40;;;;;;;3.00;2.40;;;;;;;;;;5033146;28;20434;-76
2021/06/24 16:07:06;;;;;;;5.27;2.60;;;;;;;;;;5051895;28;20418;-77
2021/06/24 16:12:36;;;;;;;2.30;2.13;;;;;;;;;;5051782;28;20449;-75
2021/06/24 16:15:07;;;;;;;5.80;2.70;;;;;;;;;;5052158;28;20474;-74
2021/06/24 16:17:33;;;;;;;2.73;2.53;;;;;;;;;;5051980;28;20414;-77
2021/06/24 16:19:59;;;;;;;2.60;2.40;;;;;;;;;;5033547;28;20890;-78
2021/06/24 16:22:25;;;;;;;2.93;2.67;;;;;;;;;;5033822;28;20434;-77
2021/06/24 16:27:55;;;;;;;2.63;2.43;;;;;;;;;;5051618;28;20465;-76
2021/06/24 16:30:22;;;;;;;3.40;3.20;;;;;;;;;;5051759;28;20439;-76
2021/06/24 16:32:53;;;;;;;3.10;2.90;;;;;;;;;;5051530;28;20881;-75
2021/06/24 16:35:20;;;;;;;3.83;2.50;;;;;;;;;;5051310;28;20524;-77
2021/06/24 16:37:46;;;;;;;2.73;2.53;;;;;;;;;;5051729;28;20426;-75
2021/06/24 16:43:16;;;;;;;2.53;2.33;;;;;;;;;;5051788;28;20442;-73
2021/06/24 16:45:42;;;;;;;3.57;2.50;;;;;;;;;;5051718;28;20490;-75
2021/06/24 16:48:09;;;;;;;4.43;3.23;;;;;;;;;;5051144;28;20462;-74
2021/06/24 16:50:35;;;;;;;3.13;2.50;;;;;;;;;;5050488;28;20468;-76
2021/06/24 16:53:01;;;;;;;6.10;3.50;;;;;;;;;;5051190;28;20415;-76
2021/06/24 16:58:30;;;;;;;3.33;3.13;;;;;;;;;;5051193;28;20461;-76
2021/06/24 17:00:57;;;;;;;3.00;2.70;;;;;;;;;;5051250;28;20426;-76